Time;durP1;ratioP1;P1;durP2;ratioP2;P2;SDS_P1;SDS_P2;PMS_P1;PMS_P2;Temp;Humidity;BMP_temperature;BMP_pressure;BME280_temperature;BME280_humidity;BME280_pressure;Samples;Min_cycle;Max_cycle;Signal;HPM_P1;HPM_P2
2021/01/30 00:00:07;;;;;;;3.30;1.10;;;;;;;3.69;82.37;94211.50;4956240;28;20190;-75
2021/01/30 00:02:32;;;;;;;3.07;1.20;;;;;;;3.62;82.16;94217.31;4975246;28;20847;-75
2021/01/30 00:04:57;;;;;;;4.97;1.00;;;;;;;3.65;81.99;94220.44;4958082;28;20485;-75
2021/01/30 00:07:23;;;;;;;3.20;0.73;;;;;;;3.66;81.56;94216.13;4942262;28;20209;-75
2021/01/30 00:09:49;;;;;;;4.97;1.30;;;;;;;3.61;81.60;94213.16;4958340;28;20265;-75
2021/01/30 00:12:14;;;;;;;3.03;0.80;;;;;;;3.54;81.91;94210.34;4958360;28;20254;-75
2021/01/30 00:14:40;;;;;;;2.23;0.70;;;;;;;3.48;81.98;94218.59;4957864;28;20639;-75
2021/01/30 00:17:06;;;;;;;7.20;1.63;;;;;;;3.49;82.15;94212.50;4975417;28;20305;-75
2021/01/30 00:19:32;;;;;;;2.23;0.97;;;;;;;3.49;82.70;94217.63;4942197;28;20188;-75
2021/01/30 00:22:00;;;;;;;3.53;1.27;;;;;;;3.46;83.44;94225.63;4958100;28;20652;-74
2021/01/30 00:24:26;;;;;;;4.60;1.73;;;;;;;3.46;83.52;94212.78;4957699;28;20204;-75
2021/01/30 00:26:53;;;;;;;2.97;1.40;;;;;;;3.47;83.50;94222.09;4975181;28;20197;-75
2021/01/30 00:29:20;;;;;;;3.50;1.53;;;;;;;3.51;83.37;94232.88;4957882;28;20183;-75
2021/01/30 00:31:46;;;;;;;5.23;1.07;;;;;;;3.49;83.50;94229.66;4957901;28;20281;-75
2021/01/30 00:34:12;;;;;;;3.73;1.20;;;;;;;3.56;83.84;94228.97;4975147;28;20236;-74
2021/01/30 00:36:37;;;;;;;2.93;1.53;;;;;;;3.54;83.43;94236.00;4957535;28;20289;-75
2021/01/30 00:39:03;;;;;;;3.63;1.40;;;;;;;3.64;83.87;94230.88;4958156;28;20173;-75
2021/01/30 00:41:29;;;;;;;8.40;1.53;;;;;;;3.68;83.84;94240.69;4957744;28;20319;-75
2021/01/30 00:43:54;;;;;;;3.23;1.60;;;;;;;3.68;83.54;94225.31;4957304;28;20271;-75
2021/01/30 00:46:19;;;;;;;2.67;1.43;;;;;;;3.67;83.91;94210.84;4957394;28;20222;-74
2021/01/30 00:48:45;;;;;;;3.70;1.60;;;;;;;3.68;83.06;94230.44;4957603;28;20181;-75
2021/01/30 00:51:10;;;;;;;2.77;1.30;;;;;;;3.68;83.45;94238.13;4956394;28;20185;-75
2021/01/30 00:53:35;;;;;;;5.53;1.40;;;;;;;3.70;83.08;94236.22;4957436;28;20200;-75
2021/01/30 00:56:00;;;;;;;6.13;1.00;;;;;;;3.76;82.79;94232.31;4957204;28;20232;-75
2021/01/30 00:58:26;;;;;;;3.17;0.97;;;;;;;3.72;83.10;94238.69;4974933;28;20652;-75
2021/01/30 01:00:51;;;;;;;2.33;1.30;;;;;;;3.70;82.79;94253.41;4957526;28;20187;-75
2021/01/30 01:03:16;;;;;;;5.40;1.20;;;;;;;3.69;82.93;94238.94;4974749;28;20177;-75
2021/01/30 01:05:42;;;;;;;4.63;0.90;;;;;;;3.73;81.66;94258.28;4974147;28;20223;-75
2021/01/30 01:08:07;;;;;;;3.20;1.17;;;;;;;3.74;82.10;94249.63;4974581;28;20600;-75
2021/01/30 01:10:32;;;;;;;3.40;1.20;;;;;;;3.77;82.63;94256.22;4957218;28;20641;-75
2021/01/30 01:12:58;;;;;;;3.20;1.20;;;;;;;3.76;82.78;94252.84;4974596;28;20185;-75
2021/01/30 01:15:23;;;;;;;4.33;1.20;;;;;;;3.80;82.53;94245.69;4956918;28;20219;-75
2021/01/30 01:17:48;;;;;;;5.00;1.23;;;;;;;3.76;82.43;94249.47;4957176;28;20181;-74
2021/01/30 01:20:17;;;;;;;3.30;0.93;;;;;;;3.76;82.21;94249.47;4957201;28;20528;-75
2021/01/30 01:22:42;;;;;;;4.10;1.20;;;;;;;3.66;82.31;94252.06;4941038;28;20187;-75
2021/01/30 01:25:09;;;;;;;2.87;1.00;;;;;;;3.62;82.46;94250.69;4956515;28;20328;-75
2021/01/30 01:27:34;;;;;;;2.57;1.00;;;;;;;3.63;82.47;94255.72;4974274;28;20283;-75
2021/01/30 01:29:59;;;;;;;2.00;1.03;;;;;;;3.64;82.57;94248.84;4956801;28;20719;-75
2021/01/30 01:32:25;;;;;;;3.27;1.03;;;;;;;3.62;83.22;94251.53;4974181;28;20217;-75
2021/01/30 01:34:51;;;;;;;2.30;0.90;;;;;;;3.64;83.52;94259.91;4956628;28;20208;-75
2021/01/30 01:37:16;;;;;;;1.50;0.67;;;;;;;3.60;83.26;94268.81;4956690;28;20208;-74
2021/01/30 01:39:41;;;;;;;1.20;0.83;;;;;;;3.61;83.13;94272.19;4956883;28;20275;-75
2021/01/30 01:42:14;;;;;;;2.00;0.70;;;;;;;3.57;83.61;94274.22;4956691;28;20189;-75
2021/01/30 01:44:40;;;;;;;1.00;0.60;;;;;;;3.60;83.39;94278.28;4955932;28;20221;-75
2021/01/30 01:47:10;;;;;;;1.80;0.73;;;;;;;3.54;83.79;94261.69;4956523;28;20200;-75
2021/01/30 01:49:38;;;;;;;2.37;0.60;;;;;;;3.52;84.11;94260.19;4956632;28;20196;-75
2021/01/30 01:52:23;;;;;;;1.23;0.53;;;;;;;3.46;84.04;94255.59;4956558;28;20181;-75
2021/01/30 01:54:52;;;;;;;1.50;0.80;;;;;;;3.50;84.23;94257.75;4959845;28;20608;-75
2021/01/30 01:57:18;;;;;;;3.60;0.87;;;;;;;3.57;83.81;94258.03;4956327;28;20231;-75
2021/01/30 01:59:48;;;;;;;1.87;0.70;;;;;;;3.52;83.98;94260.97;4956725;28;20176;-75
2021/01/30 02:02:14;;;;;;;2.37;0.87;;;;;;;3.47;84.46;94262.34;4960995;28;20210;-75
2021/01/30 02:04:39;;;;;;;2.67;0.70;;;;;;;3.48;83.96;94257.09;4975321;28;20212;-75
2021/01/30 02:07:05;;;;;;;3.70;1.00;;;;;;;3.56;83.71;94257.22;4975440;28;20218;-75
2021/01/30 02:09:30;;;;;;;2.53;0.87;;;;;;;3.53;83.57;94249.75;4975512;28;20575;-75
2021/01/30 02:12:08;;;;;;;3.13;1.57;;;;;;;3.56;83.51;94258.97;4975313;28;20682;-75
2021/01/30 02:14:37;;;;;;;3.73;0.83;;;;;;;3.54;83.34;94253.16;4974951;28;20179;-75
2021/01/30 02:17:18;;;;;;;2.97;1.00;;;;;;;3.56;82.58;94249.50;4975187;28;20207;-75
2021/01/30 02:20:23;;;;;;;4.47;0.70;;;;;;;3.60;82.21;94235.44;4959274;28;20192;-75
2021/01/30 02:23:18;;;;;;;2.23;0.80;;;;;;;3.51;82.13;94231.13;4992527;28;20179;-75
2021/01/30 02:26:17;;;;;;;2.73;0.70;;;;;;;3.44;81.97;94242.06;4974739;28;20679;-75
2021/01/30 02:28:58;;;;;;;0.73;0.60;;;;;;;3.51;81.45;94243.16;4975026;28;20190;-75
2021/01/30 02:31:45;;;;;;;2.50;1.10;;;;;;;3.53;81.32;94249.75;4992412;28;20176;-75
2021/01/30 02:34:38;;;;;;;1.70;0.53;;;;;;;3.43;81.62;94251.53;4992536;28;20182;-75
2021/01/30 02:37:22;;;;;;;1.40;0.70;;;;;;;3.33;82.11;94250.72;4992425;28;20200;-75
2021/01/30 02:39:59;;;;;;;1.50;0.63;;;;;;;3.32;82.03;94243.97;4974888;28;20181;-75
2021/01/30 02:42:27;;;;;;;1.90;0.60;;;;;;;3.37;82.33;94244.41;4975174;28;20265;-75
2021/01/30 02:44:58;;;;;;;2.23;0.60;;;;;;;3.34;82.54;94231.81;4974403;28;20702;-75
2021/01/30 02:47:24;;;;;;;2.27;0.57;;;;;;;3.29;82.08;94229.69;4974872;28;20206;-74
2021/01/30 02:49:57;;;;;;;1.43;0.80;;;;;;;3.28;82.52;94237.50;4974848;28;20176;-75
2021/01/30 02:52:25;;;;;;;1.27;0.70;;;;;;;3.24;82.66;94233.59;4958817;28;20635;-75
2021/01/30 02:54:54;;;;;;;1.37;0.90;;;;;;;3.26;82.44;94229.94;4974671;28;20258;-75
2021/01/30 02:57:20;;;;;;;2.40;0.63;;;;;;;3.26;82.76;94226.56;4974679;28;20284;-75
2021/01/30 02:59:51;;;;;;;1.13;0.77;;;;;;;3.25;82.97;94230.88;4974887;28;20225;-75
2021/01/30 03:02:22;;;;;;;0.63;0.60;;;;;;;3.31;82.70;94229.53;4974812;28;20177;-75
2021/01/30 03:04:51;;;;;;;2.53;0.73;;;;;;;3.26;83.25;94226.56;4974490;28;20206;-75
2021/01/30 03:07:23;;;;;;;1.73;1.00;;;;;;;3.33;82.82;94222.50;4958444;28;20218;-75
2021/01/30 03:10:04;;;;;;;3.93;1.10;;;;;;;3.36;82.73;94230.75;4992102;28;20625;-75
2021/01/30 03:12:57;;;;;;;1.77;0.77;;;;;;;3.38;82.70;94217.78;4974599;28;20669;-75
2021/01/30 03:15:33;;;;;;;0.50;0.50;;;;;;;3.39;82.73;94219.41;4994202;28;20202;-75
2021/01/30 03:18:00;;;;;;;2.97;0.60;;;;;;;3.38;83.15;94223.72;4978716;28;20178;-74
2021/01/30 03:20:27;;;;;;;2.43;0.73;;;;;;;3.34;83.48;94231.81;4962417;28;20191;-74
2021/01/30 03:22:53;;;;;;;2.10;0.60;;;;;;;3.38;83.30;94222.91;4962402;28;20192;-75
2021/01/30 03:25:21;;;;;;;1.60;0.67;;;;;;;3.40;82.60;94221.03;4961924;28;20211;-75
2021/01/30 03:27:47;;;;;;;0.80;0.50;;;;;;;3.35;83.12;94218.03;4978404;28;20389;-74
2021/01/30 03:30:13;;;;;;;1.40;0.50;;;;;;;3.38;83.16;94222.91;4962263;28;20251;-74
2021/01/30 03:32:38;;;;;;;1.47;0.57;;;;;;;3.40;83.35;94210.75;4978308;28;20697;-75
2021/01/30 03:35:07;;;;;;;1.63;0.60;;;;;;;3.46;82.79;94217.09;4978095;28;20185;-75
2021/01/30 03:37:33;;;;;;;1.53;0.60;;;;;;;3.47;82.20;94206.69;4995495;28;20203;-74
2021/01/30 03:39:58;;;;;;;1.77;0.87;;;;;;;3.41;82.46;94200.34;4995625;28;20186;-75
2021/01/30 03:42:23;;;;;;;2.40;0.90;;;;;;;3.44;82.44;94196.69;4978272;28;20191;-74
2021/01/30 03:44:49;;;;;;;3.53;0.83;;;;;;;3.49;81.84;94189.41;4977311;28;20687;-74
2021/01/30 03:47:14;;;;;;;1.67;0.80;;;;;;;3.43;82.06;94197.63;4961950;28;20293;-74
2021/01/30 03:49:39;;;;;;;4.43;0.80;;;;;;;3.44;81.82;94201.81;4961780;28;20183;-75
2021/01/30 03:52:05;;;;;;;2.60;1.20;;;;;;;3.47;81.94;94203.31;4995437;28;20312;-74
2021/01/30 03:54:30;;;;;;;5.60;1.30;;;;;;;3.45;82.40;94203.47;4977700;28;20541;-74
2021/01/30 03:56:55;;;;;;;3.97;1.30;;;;;;;3.48;81.86;94208.31;4977893;28;20740;-74
2021/01/30 03:59:21;;;;;;;2.50;1.23;;;;;;;3.49;81.93;94207.38;4961729;28;20184;-75
2021/01/30 04:01:47;;;;;;;1.67;0.80;;;;;;;3.46;82.39;94205.09;4977841;28;20199;-74
2021/01/30 04:04:13;;;;;;;2.53;1.10;;;;;;;3.45;81.90;94206.03;4961292;28;20791;-74
2021/01/30 04:06:38;;;;;;;3.73;1.17;;;;;;;3.47;82.19;94204.13;4977483;28;20216;-75
2021/01/30 04:09:06;;;;;;;3.17;1.43;;;;;;;3.45;82.85;94203.47;4961598;28;20183;-75
2021/01/30 04:11:34;;;;;;;3.63;1.10;;;;;;;3.44;83.06;94201.00;4995070;28;20182;-74
2021/01/30 04:14:00;;;;;;;2.73;1.60;;;;;;;3.39;82.74;94201.44;4977644;28;20731;-73
2021/01/30 04:16:26;;;;;;;4.10;1.60;;;;;;;3.40;83.44;94196.16;4977262;28;20665;-73
2021/01/30 04:18:51;;;;;;;5.60;1.67;;;;;;;3.37;83.40;94193.88;4977400;28;20174;-73
2021/01/30 04:21:16;;;;;;;3.63;1.30;;;;;;;3.39;83.02;94191.19;4977620;28;20180;-74
2021/01/30 04:23:46;;;;;;;4.90;1.83;;;;;;;3.41;83.03;94195.22;4977413;28;20183;-73
2021/01/30 04:26:11;;;;;;;8.73;1.97;;;;;;;3.36;83.98;94194.03;4976717;28;20276;-74
2021/01/30 04:28:38;;;;;;;7.73;2.60;;;;;;;3.39;83.10;94196.31;4994740;28;20179;-75
2021/01/30 04:31:03;;;;;;;14.33;3.10;;;;;;;3.41;82.74;94179.00;4961259;28;20189;-73
2021/01/30 04:33:28;;;;;;;11.57;3.80;;;;;;;3.45;82.15;94182.13;4977210;28;20188;-74
2021/01/30 04:35:54;;;;;;;14.27;3.83;;;;;;;3.47;81.86;94175.09;4976821;28;20200;-75
2021/01/30 04:38:19;;;;;;;11.23;2.60;;;;;;;3.52;81.05;94180.59;4977267;28;20808;-75
2021/01/30 04:40:46;;;;;;;10.83;2.20;;;;;;;3.53;80.73;94188.16;4977303;28;20248;-75
2021/01/30 04:43:24;;;;;;;12.77;3.60;;;;;;;3.46;81.68;94176.84;4976912;28;20182;-75
2021/01/30 04:46:12;;;;;;;10.97;4.23;;;;;;;3.43;81.22;94174.53;4976631;28;20224;-75
2021/01/30 04:49:06;;;;;;;13.20;2.83;;;;;;;3.46;79.76;94155.50;4977043;28;20223;-75
2021/01/30 04:51:59;;;;;;;9.63;3.57;;;;;;;3.40;80.75;94155.09;4976912;28;20180;-75
2021/01/30 04:54:38;;;;;;;7.60;2.33;;;;;;;3.44;80.08;94150.50;4976782;28;20176;-73
2021/01/30 04:57:23;;;;;;;7.83;1.90;;;;;;;3.46;79.87;94147.81;4976910;28;20264;-73
2021/01/30 05:00:08;;;;;;;6.27;2.03;;;;;;;3.48;80.15;94159.56;4994130;28;20176;-73
2021/01/30 05:02:56;;;;;;;5.57;1.50;;;;;;;3.47;79.88;94146.88;4976883;28;20183;-75
2021/01/30 05:05:23;;;;;;;8.30;2.27;;;;;;;3.52;79.64;94150.63;4976174;28;20213;-75
2021/01/30 05:08:02;;;;;;;6.87;1.70;;;;;;;3.50;79.58;94138.88;4976590;28;20175;-75
2021/01/30 05:10:31;;;;;;;9.10;2.40;;;;;;;3.50;79.32;94139.69;4960318;28;20186;-75
2021/01/30 05:13:08;;;;;;;10.13;1.73;;;;;;;3.49;79.62;94139.81;4976572;28;20198;-75
2021/01/30 05:15:43;;;;;;;10.27;2.20;;;;;;;3.44;79.64;94129.16;4960294;28;20543;-75
2021/01/30 05:18:15;;;;;;;11.30;2.10;;;;;;;3.41;79.72;94136.19;4976509;28;20171;-75
2021/01/30 05:20:48;;;;;;;7.53;2.00;;;;;;;3.41;80.00;94114.84;4976309;28;20212;-73
2021/01/30 05:23:13;;;;;;;12.97;2.30;;;;;;;3.52;79.03;94124.13;4976474;28;20208;-75
2021/01/30 05:25:39;;;;;;;10.67;2.30;;;;;;;3.57;79.03;94125.34;4976023;28;20699;-75
2021/01/30 05:28:12;;;;;;;13.03;2.50;;;;;;;3.57;79.29;94124.53;4976210;28;20271;-75
2021/01/30 05:30:58;;;;;;;11.63;2.43;;;;;;;3.59;79.10;94126.00;4976210;28;20186;-75
2021/01/30 05:33:30;;;;;;;10.50;2.00;;;;;;;3.53;79.44;94118.06;4976031;28;20246;-75
2021/01/30 05:36:08;;;;;;;11.03;2.10;;;;;;;3.55;79.01;94118.75;4975708;28;20202;-75
2021/01/30 05:38:57;;;;;;;9.57;2.13;;;;;;;3.62;78.95;94122.34;4992838;28;20258;-75
2021/01/30 05:41:46;;;;;;;11.10;2.80;;;;;;;3.61;78.62;94107.91;4976088;28;20258;-75
2021/01/30 05:44:15;;;;;;;11.63;2.67;;;;;;;3.63;78.95;94109.41;4959394;28;20280;-75
2021/01/30 05:46:40;;;;;;;12.77;3.17;;;;;;;3.57;79.44;94124.53;4975859;28;20199;-75
2021/01/30 05:49:12;;;;;;;12.77;3.40;;;;;;;3.55;79.37;94111.84;4975995;28;20176;-75
2021/01/30 05:51:45;;;;;;;30.93;10.80;;;;;;;3.52;79.86;94117.25;4975667;28;20175;-75
2021/01/30 05:54:10;;;;;;;13.67;4.80;;;;;;;3.57;79.28;94104.00;4975799;28;20246;-75
2021/01/30 05:56:38;;;;;;;24.37;7.50;;;;;;;3.51;79.59;94107.94;4975516;28;20683;-75
2021/01/30 05:59:08;;;;;;;16.20;5.93;;;;;;;3.52;79.13;94111.31;4975521;28;20180;-75
2021/01/30 06:01:33;;;;;;;41.37;14.43;;;;;;;3.45;80.06;94100.00;4975589;28;20233;-75
2021/01/30 06:04:02;;;;;;;66.93;24.63;;;;;;;3.40;80.22;94102.97;4975571;28;20211;-75
2021/01/30 06:06:39;;;;;;;12.57;2.87;;;;;;;3.49;78.95;94093.63;4958796;28;20246;-75
2021/01/30 06:09:10;;;;;;;15.67;4.30;;;;;;;3.44;79.55;94103.50;4959448;28;20551;-75
2021/01/30 06:11:40;;;;;;;10.10;3.83;;;;;;;3.44;79.57;94099.16;4959434;28;20195;-75
2021/01/30 06:14:07;;;;;;;10.53;3.47;;;;;;;3.44;79.69;94098.38;4992724;28;20188;-75
2021/01/30 06:17:02;;;;;;;13.37;3.20;;;;;;;3.55;79.02;94099.03;4975314;28;20567;-75
2021/01/30 06:19:31;;;;;;;11.40;2.20;;;;;;;3.49;79.62;94091.88;4916466;29;20546;-75
2021/01/30 06:22:11;;;;;;;11.13;2.13;;;;;;;3.46;79.80;94087.03;4932603;29;20200;-75
2021/01/30 06:24:44;;;;;;;11.83;3.83;;;;;;;3.45;79.67;94084.59;4932234;29;20634;-75
2021/01/30 06:27:31;;;;;;;12.13;2.87;;;;;;;3.44;79.61;94077.84;4932376;29;20265;-75
2021/01/30 06:30:12;;;;;;;12.00;2.20;;;;;;;3.45;79.80;94079.47;4916095;29;20204;-75
2021/01/30 06:32:43;;;;;;;8.63;2.67;;;;;;;3.46;79.38;94081.09;4932345;29;20190;-75
2021/01/30 06:35:17;;;;;;;16.00;4.30;;;;;;;3.48;79.25;94089.44;4916139;29;20753;-75
2021/01/30 06:37:48;;;;;;;12.87;3.57;;;;;;;3.45;79.66;94082.84;4916299;29;20213;-75
2021/01/30 06:40:19;;;;;;;13.20;3.67;;;;;;;3.44;79.29;94078.63;4916541;29;20193;-75
2021/01/30 06:42:46;;;;;;;11.97;3.20;;;;;;;3.49;79.34;94076.47;4932300;29;20224;-75
2021/01/30 06:45:23;;;;;;;18.60;3.10;;;;;;;3.51;79.37;94076.31;4931535;29;20199;-75
2021/01/30 06:47:49;;;;;;;12.00;3.63;;;;;;;3.48;79.32;94076.63;4916457;29;20271;-75
2021/01/30 06:50:24;;;;;;;13.20;3.33;;;;;;;3.46;79.56;94076.75;4932159;29;20190;-75
2021/01/30 06:52:50;;;;;;;8.20;2.20;;;;;;;3.55;79.06;94075.13;4932293;29;20224;-75
2021/01/30 06:55:15;;;;;;;12.77;3.17;;;;;;;3.55;79.28;94075.13;4930866;28;20283;-75
2021/01/30 06:57:48;;;;;;;11.33;2.67;;;;;;;3.53;78.50;94072.66;4992156;28;20197;-75
2021/01/30 07:00:22;;;;;;;10.07;2.70;;;;;;;3.46;79.35;94071.63;4958846;28;20198;-75
2021/01/30 07:02:50;;;;;;;13.10;2.70;;;;;;;3.42;79.41;94076.22;4992316;28;20177;-75
2021/01/30 07:05:25;;;;;;;13.10;3.17;;;;;;;3.48;79.15;94074.84;4974375;28;20309;-75
2021/01/30 07:08:25;;;;;;;11.67;4.23;;;;;;;3.40;79.52;94079.88;4958913;28;20183;-75
2021/01/30 07:10:58;;;;;;;11.20;2.57;;;;;;;3.42;79.30;94081.34;4992238;28;20207;-75
2021/01/30 07:13:39;;;;;;;15.40;2.37;;;;;;;3.51;78.96;94076.31;4958716;28;20245;-75
2021/01/30 07:16:45;;;;;;;9.80;2.23;;;;;;;3.63;77.71;94065.75;4974497;28;20201;-75
2021/01/30 07:19:35;;;;;;;8.97;2.37;;;;;;;3.56;78.30;94071.59;4945942;28;20217;-75
2021/01/30 07:22:09;;;;;;;8.53;2.27;;;;;;;3.53;79.05;94075.22;4974836;28;20195;-75
2021/01/30 07:24:42;;;;;;;11.57;2.53;;;;;;;3.56;78.49;94059.56;4958151;28;20209;-75
2021/01/30 07:27:16;;;;;;;16.00;3.00;;;;;;;3.62;78.14;94060.75;4974942;28;20204;-75
2021/01/30 07:29:46;;;;;;;10.30;2.57;;;;;;;3.57;78.52;94061.19;4992022;28;20181;-75
2021/01/30 07:32:17;;;;;;;12.70;2.67;;;;;;;3.59;78.85;94066.97;4974553;28;20522;-75
2021/01/30 07:34:55;;;;;;;10.53;2.50;;;;;;;3.68;78.06;94055.03;4956641;28;20182;-75
2021/01/30 07:37:30;;;;;;;12.80;2.53;;;;;;;3.70;77.98;94048.81;4964345;28;20206;-74
2021/01/30 07:39:58;;;;;;;6.80;2.00;;;;;;;3.69;78.09;94046.38;4970439;28;20261;-75
2021/01/30 07:42:39;;;;;;;12.73;2.23;;;;;;;3.78;78.13;94044.72;4955177;28;20179;-75
2021/01/30 07:45:18;;;;;;;11.27;2.03;;;;;;;3.75;78.13;94045.03;4971906;28;20291;-75
2021/01/30 07:47:48;;;;;;;12.93;2.57;;;;;;;3.77;77.90;94053.38;4955144;28;20203;-75
2021/01/30 07:50:22;;;;;;;10.87;2.30;;;;;;;3.82;77.63;94046.06;4955322;28;20225;-75
2021/01/30 07:53:23;;;;;;;12.47;2.60;;;;;;;3.83;77.96;94043.34;4954971;28;20191;-75
2021/01/30 07:56:06;;;;;;;15.23;3.00;;;;;;;3.88;78.06;94040.34;4938722;28;20236;-75
2021/01/30 07:58:37;;;;;;;14.10;2.50;;;;;;;3.93;77.52;94033.84;4955353;28;20591;-75
2021/01/30 08:01:09;;;;;;;9.83;2.30;;;;;;;3.99;77.23;94037.59;4956693;28;20183;-75
2021/01/30 08:04:02;;;;;;;9.70;2.30;;;;;;;4.00;77.52;94039.22;4975623;28;20315;-75
2021/01/30 08:06:28;;;;;;;10.07;2.10;;;;;;;4.00;77.14;94039.22;4958088;28;20213;-75
2021/01/30 08:08:56;;;;;;;10.40;2.30;;;;;;;4.09;77.39;94037.53;4958271;28;20187;-75
2021/01/30 08:11:31;;;;;;;12.37;2.27;;;;;;;4.05;77.10;94031.88;4958202;28;20547;-75
2021/01/30 08:14:09;;;;;;;30.13;11.17;;;;;;;4.12;77.40;94025.19;4958235;28;20261;-75
2021/01/30 08:16:56;;;;;;;12.20;3.13;;;;;;;4.12;77.33;94025.19;4979740;28;20217;-75
2021/01/30 08:19:32;;;;;;;10.97;3.40;;;;;;;4.13;77.22;94026.00;4985256;28;20725;-75
2021/01/30 08:22:02;;;;;;;13.57;2.93;;;;;;;4.15;77.37;94039.50;4976432;28;20172;-75
2021/01/30 08:24:31;;;;;;;8.07;2.33;;;;;;;4.21;77.23;94032.03;4976749;28;20200;-75
2021/01/30 08:27:09;;;;;;;9.30;2.20;;;;;;;4.26;77.18;94029.03;4994748;28;20268;-75
2021/01/30 08:29:37;;;;;;;10.67;2.73;;;;;;;4.29;77.43;94035.63;4977351;28;20267;-75
2021/01/30 08:32:24;;;;;;;13.67;2.37;;;;;;;4.25;76.98;94028.22;4977380;28;20176;-75
2021/01/30 08:34:51;;;;;;;10.00;2.60;;;;;;;4.36;76.89;94032.34;4976670;28;20186;-75
2021/01/30 08:37:16;;;;;;;13.77;2.53;;;;;;;4.35;77.08;94035.06;4977115;28;20671;-75
2021/01/30 08:40:06;;;;;;;13.63;2.83;;;;;;;4.41;76.80;94032.69;4994035;28;20229;-75
2021/01/30 08:42:37;;;;;;;13.07;3.80;;;;;;;4.45;76.99;94031.47;4994438;28;20174;-75
2021/01/30 08:45:06;;;;;;;21.93;5.93;;;;;;;4.49;76.74;94026.81;4976670;28;20205;-75
2021/01/30 08:47:36;;;;;;;11.13;3.23;;;;;;;4.47;77.13;94023.59;4960852;28;20199;-75
2021/01/30 08:50:12;;;;;;;12.80;2.70;;;;;;;4.47;76.77;94021.84;4976732;28;20184;-75
2021/01/30 08:52:49;;;;;;;10.30;2.20;;;;;;;4.53;76.95;94023.00;4960860;28;20203;-75
2021/01/30 08:55:45;;;;;;;13.17;2.60;;;;;;;4.51;76.54;94019.78;4976524;28;20169;-74
2021/01/30 08:58:32;;;;;;;9.93;2.43;;;;;;;4.52;76.54;94018.84;4981774;28;20242;-74
2021/01/30 09:01:27;;;;;;;15.20;2.70;;;;;;;4.54;76.96;94024.63;4993745;28;20172;-76
2021/01/30 09:04:00;;;;;;;9.10;2.10;;;;;;;4.52;76.27;94013.69;4980957;28;20254;-75
2021/01/30 09:06:40;;;;;;;13.97;2.63;;;;;;;4.56;76.77;94022.72;4976085;28;20211;-75
2021/01/30 09:09:08;;;;;;;13.07;2.90;;;;;;;4.57;76.73;94024.31;4976514;28;20211;-75
2021/01/30 09:11:38;;;;;;;12.33;3.43;;;;;;;4.63;76.84;94022.94;4993253;28;20239;-74
2021/01/30 09:14:26;;;;;;;13.37;5.37;;;;;;;4.66;76.62;94023.44;4976167;28;20556;-75
2021/01/30 09:17:03;;;;;;;14.57;3.83;;;;;;;4.69;76.41;94019.78;4980692;28;20663;-75
2021/01/30 09:20:02;;;;;;;13.40;5.10;;;;;;;4.71;76.70;94010.13;4976335;28;20707;-75
2021/01/30 09:22:43;;;;;;;8.27;2.80;;;;;;;4.81;75.95;94011.66;4993272;28;20218;-74
2021/01/30 09:25:21;;;;;;;12.33;3.03;;;;;;;4.91;75.98;94014.13;4958821;28;20200;-75
2021/01/30 09:27:53;;;;;;;14.23;2.90;;;;;;;4.87;75.81;94012.03;4976184;28;20180;-75
2021/01/30 09:30:36;;;;;;;7.73;2.83;;;;;;;4.90;75.93;94007.38;4976117;28;20183;-75
2021/01/30 09:33:09;;;;;;;7.80;2.47;;;;;;;4.94;75.37;94005.28;4976114;28;20187;-75
2021/01/30 09:35:37;;;;;;;12.27;2.57;;;;;;;4.88;75.92;94009.31;4974939;28;20227;-75
2021/01/30 09:38:28;;;;;;;11.63;2.30;;;;;;;4.88;76.26;94017.00;4969526;28;20230;-75
2021/01/30 09:41:12;;;;;;;13.40;2.63;;;;;;;4.90;75.75;94016.84;4963686;28;20649;-75
2021/01/30 09:43:38;;;;;;;5.70;2.00;;;;;;;4.86;76.35;94010.38;4976125;28;20180;-75
2021/01/30 09:46:05;;;;;;;13.33;2.63;;;;;;;4.89;76.28;94012.69;4955964;28;20577;-75
2021/01/30 09:48:31;;;;;;;10.00;3.17;;;;;;;4.96;76.23;94013.69;4956587;28;20212;-74
2021/01/30 09:51:00;;;;;;;15.57;4.63;;;;;;;4.93;76.60;94021.69;4956345;28;20254;-74
2021/01/30 09:53:32;;;;;;;9.57;3.90;;;;;;;4.88;77.11;94019.59;4971636;28;20184;-75
2021/01/30 09:56:08;;;;;;;3.93;1.60;;;;;;;4.76;76.09;94024.16;4992357;28;20664;-72
2021/01/30 09:58:35;;;;;;;6.63;2.53;;;;;;;4.71;76.92;94012.72;4975894;28;20170;-73
2021/01/30 10:01:07;;;;;;;4.07;1.90;;;;;;;4.74;76.40;94020.91;4975484;28;20267;-72
2021/01/30 10:03:38;;;;;;;7.00;2.17;;;;;;;4.76;76.65;94025.91;4975457;28;20175;-73
2021/01/30 10:06:18;;;;;;;4.97;1.60;;;;;;;4.67;76.35;94016.50;4974878;28;20623;-73
2021/01/30 10:08:45;;;;;;;6.37;2.10;;;;;;;4.61;76.34;94010.22;4969061;28;20183;-73
2021/01/30 10:11:19;;;;;;;5.77;3.67;;;;;;;4.72;76.76;94009.97;4940105;28;20190;-72
2021/01/30 10:13:56;;;;;;;6.30;2.07;;;;;;;4.72;76.38;94009.19;4940106;28;20216;-72
2021/01/30 10:16:23;;;;;;;5.77;2.30;;;;;;;4.70;77.40;94001.63;4939563;28;20192;-73
2021/01/30 10:19:10;;;;;;;5.13;1.70;;;;;;;4.66;76.97;94000.28;4956069;28;20247;-72
2021/01/30 10:21:38;;;;;;;5.83;1.50;;;;;;;4.73;77.42;93998.75;4955854;28;20179;-73
2021/01/30 10:24:17;;;;;;;5.00;1.43;;;;;;;4.73;76.84;93995.34;4955070;28;20544;-72
2021/01/30 10:26:42;;;;;;;3.60;1.13;;;;;;;4.75;76.88;93996.00;4955565;28;20283;-72
2021/01/30 10:29:14;;;;;;;7.00;1.73;;;;;;;4.80;77.22;93991.25;4939891;28;20216;-72
2021/01/30 10:31:45;;;;;;;4.93;1.70;;;;;;;4.86;77.55;93979.53;4955779;28;20172;-72
2021/01/30 10:34:18;;;;;;;6.00;1.10;;;;;;;4.73;77.44;93985.88;4951328;28;20233;-72
2021/01/30 10:36:56;;;;;;;4.40;1.50;;;;;;;4.78;77.62;93981.09;4992253;28;20200;-73
2021/01/30 10:39:22;;;;;;;8.03;1.40;;;;;;;4.73;77.92;93978.16;4992186;28;20182;-72
2021/01/30 10:41:49;;;;;;;4.50;2.73;;;;;;;4.64;77.38;93970.53;4991185;28;20170;-72
2021/01/30 10:44:22;;;;;;;5.10;2.30;;;;;;;4.74;77.93;93969.50;4974578;28;20595;-73
2021/01/30 10:46:47;;;;;;;5.33;1.77;;;;;;;4.79;78.43;93972.44;4991207;28;20270;-72
2021/01/30 10:49:25;;;;;;;6.43;1.90;;;;;;;4.85;78.01;93960.72;4974661;28;20187;-72
2021/01/30 10:51:59;;;;;;;6.47;2.73;;;;;;;4.88;77.98;93963.00;4990860;28;20176;-75
2021/01/30 10:54:27;;;;;;;6.27;3.17;;;;;;;4.86;77.92;93961.50;4990903;28;20202;-71
2021/01/30 10:57:22;;;;;;;6.17;3.23;;;;;;;4.81;78.49;93952.50;4990660;28;20199;-73
2021/01/30 10:59:49;;;;;;;4.80;2.10;;;;;;;4.79;78.41;93954.44;4974807;28;20168;-72
2021/01/30 11:02:39;;;;;;;7.97;3.60;;;;;;;4.78;78.89;93946.88;4974759;28;20530;-73
2021/01/30 11:05:19;;;;;;;12.10;4.27;;;;;;;4.93;78.79;93947.91;4991660;28;20266;-72
2021/01/30 11:07:45;;;;;;;9.03;3.63;;;;;;;4.87;78.65;93942.56;4991598;28;20203;-72
2021/01/30 11:10:47;;;;;;;7.23;1.70;;;;;;;4.89;78.88;93938.88;4974732;28;20179;-72
2021/01/30 11:13:18;;;;;;;7.17;1.70;;;;;;;4.87;78.70;93929.72;4974699;28;20644;-72
2021/01/30 11:15:44;;;;;;;4.67;1.60;;;;;;;4.68;78.33;93931.53;4991821;28;20195;-72
2021/01/30 11:18:12;;;;;;;3.23;1.33;;;;;;;4.81;78.92;93925.97;4990800;28;20176;-72
2021/01/30 11:20:43;;;;;;;10.00;2.47;;;;;;;4.89;78.78;93920.06;4990850;28;20184;-73
2021/01/30 11:23:08;;;;;;;3.53;1.20;;;;;;;4.81;78.93;93924.22;4990774;28;20183;-73
2021/01/30 11:25:39;;;;;;;3.53;1.53;;;;;;;4.87;78.83;93916.84;4968098;28;20210;-73
2021/01/30 11:28:04;;;;;;;5.80;1.20;;;;;;;4.86;78.65;93915.22;4954673;28;20192;-73
2021/01/30 11:30:29;;;;;;;3.40;0.93;;;;;;;4.93;78.97;93903.38;4993202;28;20561;-73
2021/01/30 11:33:02;;;;;;;2.27;1.00;;;;;;;4.96;79.08;93898.75;4972795;28;20180;-72
2021/01/30 11:35:36;;;;;;;0.97;0.80;;;;;;;4.96;77.96;93893.59;4974956;28;20180;-72
2021/01/30 11:38:19;;;;;;;1.73;0.83;;;;;;;5.15;77.99;93882.25;4962010;28;20183;-73
2021/01/30 11:40:45;;;;;;;1.80;0.70;;;;;;;5.20;78.07;93877.44;4995696;28;20241;-72
2021/01/30 11:43:12;;;;;;;3.57;1.10;;;;;;;5.32;77.40;93876.19;4977951;28;20180;-71
2021/01/30 11:45:37;;;;;;;2.90;0.93;;;;;;;5.26;76.76;93866.53;4977740;28;20199;-72
2021/01/30 11:48:03;;;;;;;4.50;1.60;;;;;;;5.01;77.54;93867.38;4977921;28;20242;-74
2021/01/30 11:50:28;;;;;;;3.33;1.47;;;;;;;5.08;77.85;93856.31;4992528;28;20184;-72
2021/01/30 11:52:54;;;;;;;3.13;1.20;;;;;;;5.22;77.34;93861.84;4995368;28;20585;-73
2021/01/30 11:55:20;;;;;;;5.57;2.20;;;;;;;5.21;77.47;93858.47;4995168;28;20207;-73
2021/01/30 11:57:45;;;;;;;2.50;1.70;;;;;;;5.24;77.92;93847.06;4976951;28;20231;-73
2021/01/30 12:00:13;;;;;;;3.63;1.30;;;;;;;5.15;78.42;93845.44;4979734;28;20184;-73
2021/01/30 12:02:41;;;;;;;3.70;1.27;;;;;;;5.25;78.37;93846.09;4977369;28;20195;-74